AirNav   Bose Proflight Series 2 Wireless Aviation Headset
 
 1422 users online  

04NJ Emmanuel Airport
Elmer, New Jersey, USA

GOING TO ELMER?


FAA INFORMATION EFFECTIVE 07 NOVEMBER 2019

Location

FAA Identifier: 04NJ
Lat/Long: 39-35-48.4120N 075-14-00.6680W
39-35.806867N 075-14.011133W
39.5967811,-75.2335189
(estimated)
Elevation: 155 ft. / 47.2 m (surveyed)
Variation: 11W (1985)
From city: 3 miles W of ELMER, NJ
Time zone: UTC -5 (UTC -4 during Daylight Saving Time)
Zip code: 08318

Airport Operations

Airport use: Private use. Permission required prior to landing
Activation date: 03/1979
Control tower: no
ARTCC: NEW YORK CENTER
FSS: MILLVILLE FLIGHT SERVICE STATION
Attendance: UNATNDD
Wind indicator: yes
Segmented circle: no
Lights: FOR LIRL RY 08/26 CALL 609-358-7374.

Airport Communications

WX ASOS at MIV (16 nm SE): 119.6 (856-327-3455)
WX ASOS at PHL (17 nm N): PHONE 215-492-9617
WX ASOS at ILG (18 nm W): PHONE 302-328-1536

Nearby radio navigation aids

VOR radial/distance  VOR name  Freq  Var
OODr136/4.0WOODSTOWN VORTAC112.8010W
VCNr296/12.8CEDAR LAKE VOR/DME115.2010W
DQOr116/17.9DUPONT VORTAC114.0010W
ENOr040/25.5SMYRNA VORTAC111.4009W
MXEr143/27.9MODENA VORTAC113.2009W
ACYr296/31.6ATLANTIC CITY VORTAC108.6010W
SIEr335/36.2SEA ISLE VORTAC114.8009W
GXUr242/38.4MC GUIRE VORTAC110.6012W
CYNr260/39.3COYLE VORTAC113.4010W

 
NDB name  Hdg/Dist  Freq  Var  ID
RAINBOW348/11.636311WRNB .-. -. -...
AMBLER188/31.827512WING .. -. --.

Airport Services

Runway Information

Runway 8/26

Dimensions: 3500 x 50 ft. / 1067 x 15 m
Surface: turf
Runway edge lights: low intensity
RUNWAY 8  RUNWAY 26
Traffic pattern: leftright
Displaced threshold: 600 ft.300 ft.
Obstructions: 35 ft. pline, 700 ft. from runway15 ft. road, 375 ft. from runway

Airport Ownership and Management from official FAA records

Ownership: Privately-owned
Owner: JACKIE M. BOWERS
266 RT 77 EMMANUEL
ELMER, NJ 08318
Phone (856) 358-7374
Manager: JACKIE M. BOWERS
266 RT 77 EMMANUEL
ELMER, NJ 08318
Phone (856) 358-7374

Airport Operational Statistics

Aircraft based on the field: 2
Single engine airplanes: 2
    

Additional Remarks

FOR CD CTC PHILADELPHIA APCH AT 800-354-9884

Instrument Procedures

There are no published instrument procedures at 04NJ.

Some nearby airports with instrument procedures:

29N - Kroelinger Airport (10 nm SE)
7N7 - Spitfire Aerodrome (11 nm NW)
17N - Cross Keys Airport (11 nm NE)
KMIV - Millville Municipal Airport (16 nm SE)
KPHL - Philadelphia International Airport (17 nm N)
19N - Camden County Airport (17 nm NE)
KILG - New Castle Airport (18 nm W)
 
Loc | Ops | Rwys | IFR | FBO | Links
Com | Nav | Svcs | Stats | Notes
Area around 04NJ (Emmanuel Airport)
 
Road maps at: MapQuest Bing Google
 
Aerial photo
No photo
 
Sectional chart

 
Airport distance calculator
Flying to Emmanuel Airport? Find the distance to fly.

From to 04NJ

Sunrise and sunset
Times for 18-Nov-2019
 Local
(UTC-5)
 Zulu
(UTC)
Morning civil twilight06:2111:21
Sunrise06:5011:50
Sunset16:4321:43
Evening civil twilight17:1222:12

Current date and time
Zulu (UTC)  18-Nov-2019 17:13:05
Local (UTC-5)  18-Nov-2019 12:13:05
 
METAR
KMIV 
15nm SE 
181654Z AUTO 36007KT 6SM HZ OVC009 06/03 A2979 RMK AO2 CIG 007V013 SLP088 T00560028
KPHL 
16nm N 
181654Z 35008KT 10SM OVC013 06/02 A2981 RMK AO2 SLP093 T00560017
KILG 
17nm W 
181651Z 36006KT 10SM OVC016 07/02 A2981 RMK AO2 SLP095 T00720022 $
KVAY 
27nm NE 
ASOS 119.325 609-267-1176
181654Z AUTO 34009KT 6SM HZ OVC011 06/03 A2980 RMK AO2 SLP090 T00560028
KOQN 
29nm NW 
181655Z AUTO 35007KT 10SM 05/01 A2980 RMK AO2
KDOV 
31nm S 
181636Z 31007KT 1 1/2SM -RABR OVC006 05/04 A2980 RMK TWR VIS 2 CIG 005 RWY19 SLP095 $
KPNE 
31nm N 
181654Z 35009KT 10SM OVC009 06/03 A2982 RMK AO2 CIG 007V011 SLP097 T00610028
TAF
KMIV 
15nm SE 
181349Z 1814/1912 36011KT 4SM BR OVC008 FM181600 35008KT P6SM OVC015 FM182200 35008KT 6SM -RA BR OVC020 FM190800 VRB03KT 6SM BR OVC025
KPHL 
16nm N 
181350Z 1814/1918 01010KT 4SM BR BKN008 OVC015 FM181500 01008KT P6SM OVC014 FM181800 35010KT P6SM OVC020 FM182300 35005KT 5SM -RA BR OVC015 FM190800 30005KT 6SM BR OVC020 FM191400 28005KT P6SM BKN035
KILG 
17nm W 
181521Z 1815/1912 36011KT P6SM OVC015 FM182300 VRB05KT P6SM OVC020 FM190900 VRB03KT P6SM BKN035
NOTAMs
Click for the latest NOTAMs
NOTAMs are issued by the DoD/FAA and will open in a separate window not controlled by AirNav.

 

 
 

Would you like to see your business listed on this page?

 If your business provides an interesting product or service to pilots, flight crews, aircraft, or users of the Emmanuel Airport, you should consider listing it here.  To start the listing process, click on the button below
 
Add a business
 

Other Pages about Emmanuel Airport

Update a link
 
Copyright © AirNav, LLC. All rights reserved. Privacy Policy  Contact